createdAt,value
2019-05-21T00:01:39.926Z,17.40
2019-05-21T00:04:09.908Z,14.90
2019-05-21T00:06:40.040Z,10.47
2019-05-21T00:09:10.179Z,8.40
2019-05-21T00:11:41.276Z,8.07
2019-05-21T00:14:18.560Z,10.17
2019-05-21T00:16:48.391Z,12.97
2019-05-21T00:19:20.078Z,17.23
2019-05-21T00:21:50.300Z,13.07
2019-05-21T00:24:21.134Z,14.80
2019-05-21T00:26:51.104Z,16.23
2019-05-21T00:30:19.594Z,17.50
2019-05-21T00:33:46.162Z,13.37
2019-05-21T00:36:54.050Z,14.17
2019-05-21T00:40:27.051Z,16.93
2019-05-21T00:42:57.216Z,16.47
2019-05-21T00:45:29.317Z,16.17
2019-05-21T00:47:59.667Z,13.60
2019-05-21T00:50:29.795Z,14.40
2019-05-21T00:52:59.896Z,16.73
2019-05-21T00:55:30.682Z,10.80
2019-05-21T00:58:00.667Z,9.53
2019-05-21T01:00:31.827Z,11.93
2019-05-21T01:03:03.968Z,16.73
2019-05-21T01:05:33.803Z,13.07
2019-05-21T01:08:05.482Z,13.93
2019-05-21T01:10:41.527Z,17.83
2019-05-21T01:13:12.655Z,18.90
2019-05-21T01:15:42.506Z,18.63
2019-05-21T01:18:12.220Z,18.00
2019-05-21T01:20:42.971Z,15.33
2019-05-21T01:23:12.740Z,17.77
2019-05-21T01:25:46.778Z,17.47
2019-05-21T01:28:16.887Z,16.93
2019-05-21T01:30:46.992Z,11.77
2019-05-21T01:33:17.831Z,18.30
2019-05-21T01:35:48.467Z,12.73
2019-05-21T01:38:21.466Z,9.63
2019-05-21T01:41:00.827Z,11.60
2019-05-21T01:43:32.880Z,17.33
2019-05-21T01:46:02.727Z,11.80
2019-05-21T01:48:34.639Z,10.80
2019-05-21T01:51:04.749Z,9.80
2019-05-21T01:53:34.583Z,7.87
2019-05-21T01:56:08.679Z,7.97
2019-05-21T01:58:45.528Z,9.30
2019-05-21T02:01:15.234Z,11.63
2019-05-21T02:03:45.185Z,8.50
2019-05-21T02:06:15.019Z,10.80
2019-05-21T02:08:47.227Z,19.80
2019-05-21T02:11:20.408Z,13.10
2019-05-21T02:13:51.519Z,13.77
2019-05-21T02:16:24.672Z,12.10
2019-05-21T02:18:55.276Z,12.47
2019-05-21T02:21:24.998Z,13.70
2019-05-21T02:23:55.952Z,12.27
2019-05-21T02:26:26.065Z,17.00
2019-05-21T02:28:56.172Z,17.90
2019-05-21T02:31:26.296Z,20.13
2019-05-21T02:33:58.467Z,18.00
2019-05-21T02:36:28.568Z,13.77
2019-05-21T02:38:58.396Z,10.33
2019-05-21T02:41:28.458Z,9.57
2019-05-21T02:44:06.618Z,7.20
2019-05-21T02:46:37.532Z,5.23
2019-05-21T02:49:07.218Z,4.47
2019-05-21T02:51:37.201Z,6.00
2019-05-21T02:54:07.031Z,3.73
2019-05-21T02:56:36.983Z,3.50
2019-05-21T02:59:08.082Z,5.87
2019-05-21T03:01:54.644Z,4.27
2019-05-21T03:04:24.815Z,5.90
2019-05-21T03:06:59.375Z,4.77
2019-05-21T03:09:29.357Z,3.13
2019-05-21T03:11:59.507Z,3.63
2019-05-21T03:14:30.509Z,2.70
2019-05-21T03:17:02.558Z,4.37
2019-05-21T03:19:32.900Z,2.07
2019-05-21T03:22:03.067Z,2.30
2019-05-21T03:24:32.900Z,3.00
2019-05-21T03:27:05.305Z,2.60
2019-05-21T03:29:35.407Z,2.03
2019-05-21T03:32:05.398Z,9.27
2019-05-21T03:34:36.487Z,2.77
2019-05-21T03:37:09.860Z,3.67
2019-05-21T03:39:41.960Z,3.53
2019-05-21T03:42:13.988Z,4.87
2019-05-21T03:44:58.861Z,6.40
2019-05-21T03:47:19.196Z,3.57
2019-05-21T03:49:49.835Z,5.63
2019-05-21T03:52:19.871Z,4.00
2019-05-21T03:54:56.873Z,9.43
2019-05-21T03:57:30.398Z,8.27
2019-05-21T04:00:02.493Z,9.10
2019-05-21T04:02:34.503Z,8.77
2019-05-21T04:05:07.479Z,9.83
2019-05-21T04:07:43.401Z,10.27
2019-05-21T04:10:17.274Z,11.37
2019-05-21T04:12:49.024Z,15.50
2019-05-21T04:15:20.573Z,12.83
2019-05-21T04:18:01.778Z,11.83
2019-05-21T04:20:31.610Z,20.70
2019-05-21T04:23:01.313Z,20.00
2019-05-21T04:25:38.085Z,19.40
2019-05-21T04:28:22.230Z,20.07
2019-05-21T04:30:53.319Z,19.40
2019-05-21T04:33:23.437Z,16.80
2019-05-21T04:35:54.236Z,20.40
2019-05-21T04:38:25.209Z,15.43
2019-05-21T04:41:00.990Z,17.50
2019-05-21T04:43:37.015Z,12.87
2019-05-21T04:46:13.107Z,20.60
2019-05-21T04:48:44.121Z,19.00
2019-05-21T04:51:15.312Z,13.57
2019-05-21T04:53:51.217Z,13.97
2019-05-21T04:56:22.259Z,14.07
2019-05-21T04:58:54.346Z,11.57
2019-05-21T05:01:24.467Z,12.17
2019-05-21T05:03:55.478Z,10.87
2019-05-21T05:06:25.592Z,18.00
2019-05-21T05:08:57.959Z,13.10
2019-05-21T05:11:28.087Z,15.83
2019-05-21T05:13:57.926Z,13.80
2019-05-21T05:16:33.420Z,10.77
2019-05-21T05:19:03.131Z,14.50
2019-05-21T05:21:43.227Z,13.23
2019-05-21T05:24:13.411Z,14.63
2019-05-21T05:26:50.133Z,14.27
2019-05-21T05:29:20.248Z,13.27
2019-05-21T05:31:50.357Z,14.17
2019-05-21T05:34:20.467Z,14.27
2019-05-21T05:36:50.582Z,7.67
2019-05-21T05:39:20.707Z,11.93
2019-05-21T05:41:50.848Z,12.10
2019-05-21T05:44:24.439Z,13.47
2019-05-21T05:47:01.284Z,11.70
2019-05-21T05:49:39.332Z,11.53
2019-05-21T05:52:09.284Z,9.37
2019-05-21T05:54:38.993Z,11.03
2019-05-21T05:57:08.962Z,8.37
2019-05-21T05:59:39.071Z,7.10
2019-05-21T06:02:12.728Z,9.03
2019-05-21T06:04:42.436Z,6.73
2019-05-21T06:07:17.191Z,7.30
2019-05-21T06:09:48.798Z,8.40
2019-05-21T06:12:20.716Z,7.40
2019-05-21T06:14:50.836Z,10.20
2019-05-21T06:17:20.937Z,8.13
2019-05-21T06:20:11.006Z,7.77
2019-05-21T06:22:53.555Z,7.83
2019-05-21T06:25:23.901Z,12.00
2019-05-21T06:27:59.010Z,6.20
2019-05-21T06:30:29.117Z,7.27
2019-05-21T06:33:02.317Z,7.00
2019-05-21T06:35:41.537Z,6.67
2019-05-21T06:38:17.874Z,6.50
2019-05-21T06:40:52.020Z,5.83
2019-05-21T06:43:23.065Z,6.10
2019-05-21T06:45:54.115Z,3.83
2019-05-21T06:48:35.288Z,5.30
2019-05-21T06:51:06.316Z,10.23
2019-05-21T06:53:36.181Z,8.70
2019-05-21T06:56:07.549Z,4.47
2019-05-21T06:58:50.093Z,5.70
2019-05-21T07:01:27.655Z,4.97
2019-05-21T07:03:59.448Z,5.23
2019-05-21T07:06:29.579Z,3.40
2019-05-21T07:08:59.463Z,6.80
2019-05-21T07:11:29.157Z,3.30
2019-05-21T07:13:59.781Z,3.93
2019-05-21T07:16:29.737Z,3.07
2019-05-21T07:18:59.894Z,4.10
2019-05-21T07:21:30.265Z,3.47
2019-05-21T07:24:06.275Z,3.27
2019-05-21T07:26:38.431Z,8.37
2019-05-21T07:29:08.537Z,3.10
2019-05-21T07:31:38.649Z,2.33
2019-05-21T07:34:08.750Z,2.73
2019-05-21T07:36:42.965Z,4.53
2019-05-21T07:39:17.081Z,2.37
2019-05-21T07:41:47.179Z,4.07
2019-05-21T07:44:17.268Z,2.20
2019-05-21T07:46:53.183Z,3.20
2019-05-21T07:49:23.280Z,2.97
2019-05-21T07:51:54.075Z,2.23
2019-05-21T07:54:24.026Z,2.60
2019-05-21T07:56:54.148Z,3.77
2019-05-21T07:59:24.312Z,5.73
2019-05-21T08:01:54.421Z,2.60
2019-05-21T08:04:24.546Z,2.20
2019-05-21T08:06:54.678Z,2.37
2019-05-21T08:09:25.664Z,1.67
2019-05-21T08:11:56.707Z,3.70
2019-05-21T08:14:28.765Z,1.87
2019-05-21T08:16:58.862Z,1.67
2019-05-21T08:19:31.169Z,1.40
2019-05-21T08:22:02.730Z,1.50
2019-05-21T08:24:33.758Z,1.47
2019-05-21T08:27:04.978Z,1.67
2019-05-21T08:29:40.947Z,1.37
2019-05-21T08:32:13.703Z,1.03
2019-05-21T08:34:44.790Z,0.93
2019-05-21T08:37:15.822Z,1.30
2019-05-21T08:39:46.847Z,1.13
2019-05-21T08:42:16.934Z,1.33
2019-05-21T08:44:51.411Z,1.30
2019-05-21T08:47:21.582Z,1.47
2019-05-21T08:49:52.660Z,0.90
2019-05-21T08:52:22.744Z,1.23
2019-05-21T08:54:56.271Z,1.03
2019-05-21T08:57:24.657Z,1.50
2019-05-21T08:59:54.488Z,0.97
2019-05-21T09:02:25.200Z,1.47
2019-05-21T09:04:56.233Z,1.20
2019-05-21T09:07:26.195Z,1.87
2019-05-21T09:09:57.098Z,3.80
2019-05-21T09:12:27.025Z,5.80
2019-05-21T09:14:56.887Z,1.17
2019-05-21T09:17:26.576Z,1.27
2019-05-21T09:19:56.257Z,1.33
2019-05-21T09:22:35.057Z,0.93
2019-05-21T09:25:07.857Z,1.00
2019-05-21T09:27:38.447Z,1.40
2019-05-21T09:30:13.797Z,1.17
2019-05-21T09:32:49.859Z,1.17
2019-05-21T09:35:22.943Z,0.97
2019-05-21T09:37:53.985Z,1.97
2019-05-21T09:40:30.785Z,1.30
2019-05-21T09:43:01.824Z,0.70
2019-05-21T09:45:31.923Z,0.90
2019-05-21T09:48:04.186Z,0.83
2019-05-21T09:50:36.403Z,0.90
2019-05-21T09:53:09.117Z,0.97
2019-05-21T09:55:47.457Z,1.33
2019-05-21T09:58:26.176Z,0.80
2019-05-21T10:01:09.486Z,1.10
2019-05-21T10:03:47.052Z,1.00
2019-05-21T10:06:17.281Z,1.43
2019-05-21T10:08:48.354Z,1.00
2019-05-21T10:11:21.451Z,3.50
2019-05-21T10:13:51.276Z,0.90
2019-05-21T10:16:20.952Z,0.87
2019-05-21T10:18:51.006Z,0.87
2019-05-21T10:21:22.131Z,0.90
2019-05-21T10:23:57.998Z,1.00
2019-05-21T10:26:28.115Z,1.30
2019-05-21T10:28:58.213Z,1.20
2019-05-21T10:31:28.320Z,1.33
2019-05-21T10:33:58.308Z,1.17
2019-05-21T10:36:28.272Z,1.77
2019-05-21T10:38:59.309Z,1.23
2019-05-21T10:41:40.586Z,1.00
2019-05-21T10:44:10.670Z,1.40
2019-05-21T10:46:40.793Z,1.63
2019-05-21T10:49:10.858Z,1.70
2019-05-21T10:51:40.956Z,1.20
2019-05-21T10:54:11.126Z,1.00
2019-05-21T10:56:48.472Z,1.30
2019-05-21T10:59:28.013Z,1.17
2019-05-21T11:02:09.097Z,0.83
2019-05-21T11:04:40.863Z,1.00
2019-05-21T11:07:12.844Z,1.00
2019-05-21T11:09:43.643Z,1.10
2019-05-21T11:12:26.452Z,1.40
2019-05-21T11:14:56.467Z,1.10
2019-05-21T11:17:26.553Z,1.50
2019-05-21T11:19:57.637Z,1.53
2019-05-21T11:22:32.768Z,1.20
2019-05-21T11:25:07.230Z,3.73
2019-05-21T11:27:37.410Z,1.10
2019-05-21T11:30:13.698Z,1.47
2019-05-21T11:32:43.782Z,1.40
2019-05-21T11:35:19.997Z,1.53
2019-05-21T11:37:50.157Z,1.17
2019-05-21T11:40:20.620Z,1.30
2019-05-21T11:42:52.998Z,1.80
2019-05-21T11:45:31.718Z,2.00
2019-05-21T11:47:54.917Z,3.37
2019-05-21T11:50:31.180Z,3.27
2019-05-21T11:53:02.249Z,4.20
2019-05-21T11:55:32.361Z,4.17
2019-05-21T11:58:10.369Z,4.20
2019-05-21T12:00:41.229Z,4.13
2019-05-21T12:03:16.954Z,7.50
2019-05-21T12:05:47.055Z,3.90
2019-05-21T12:08:18.113Z,5.20
2019-05-21T12:10:52.018Z,3.53
2019-05-21T12:13:22.112Z,3.07
2019-05-21T12:15:55.225Z,2.90
2019-05-21T12:18:25.346Z,3.10
2019-05-21T12:20:55.442Z,3.50
2019-05-21T12:23:25.544Z,4.23
2019-05-21T12:25:55.633Z,2.60
2019-05-21T12:28:25.731Z,3.30
2019-05-21T12:30:55.824Z,2.80
2019-05-21T12:33:26.879Z,3.80
2019-05-21T12:35:57.234Z,3.90
2019-05-21T12:38:27.085Z,3.80
2019-05-21T12:41:02.860Z,3.70
2019-05-21T12:43:32.985Z,6.40
2019-05-21T12:46:09.161Z,9.03
2019-05-21T12:48:42.383Z,3.40
2019-05-21T12:51:12.465Z,3.00
2019-05-21T12:53:42.561Z,2.87
2019-05-21T12:56:12.658Z,3.07
2019-05-21T12:58:43.731Z,2.27
2019-05-21T13:01:15.029Z,3.03
2019-05-21T13:03:55.375Z,2.03
2019-05-21T13:06:28.136Z,2.10
2019-05-21T13:08:58.238Z,2.60
2019-05-21T13:11:31.601Z,1.10
2019-05-21T13:14:02.224Z,1.13
2019-05-21T13:16:32.189Z,1.50
2019-05-21T13:19:03.231Z,1.60
2019-05-21T13:21:38.409Z,2.87
2019-05-21T13:24:09.016Z,2.57
2019-05-21T13:26:51.189Z,3.67
2019-05-21T13:29:21.299Z,2.63
2019-05-21T13:31:52.529Z,2.97
2019-05-21T13:34:22.596Z,3.13
2019-05-21T13:36:52.769Z,3.47
2019-05-21T13:39:25.777Z,4.40
2019-05-21T13:41:58.852Z,3.47
2019-05-21T13:44:29.938Z,4.30
2019-05-21T13:47:05.862Z,3.80
2019-05-21T13:49:36.708Z,4.20
2019-05-21T13:52:06.657Z,4.40
2019-05-21T13:54:36.753Z,6.40
2019-05-21T13:57:06.845Z,3.73
2019-05-21T13:59:45.977Z,3.20
2019-05-21T14:02:18.172Z,2.00
2019-05-21T14:04:48.278Z,1.90
2019-05-21T14:07:21.450Z,1.83
2019-05-21T14:10:12.403Z,2.43
2019-05-21T14:12:26.689Z,2.33
2019-05-21T14:14:56.740Z,2.40
2019-05-21T14:17:32.857Z,2.10
2019-05-21T14:20:03.054Z,2.60
2019-05-21T14:22:36.366Z,4.73
2019-05-21T14:25:06.748Z,3.90
2019-05-21T14:27:44.535Z,18.23
2019-05-21T14:30:12.894Z,4.60
2019-05-21T14:32:42.621Z,3.67
2019-05-21T14:35:14.566Z,4.00
2019-05-21T14:37:44.687Z,4.10
2019-05-21T14:40:31.849Z,4.70
2019-05-21T14:43:00.239Z,5.90
2019-05-21T14:45:34.051Z,6.60
2019-05-21T14:48:01.958Z,5.50
2019-05-21T14:50:33.029Z,4.93
2019-05-21T14:53:09.170Z,7.03
2019-05-21T14:55:40.218Z,6.40
2019-05-21T14:58:10.312Z,6.50
2019-05-21T15:00:52.504Z,12.70
2019-05-21T15:03:25.531Z,7.40
2019-05-21T15:05:55.350Z,8.43
2019-05-21T15:08:25.456Z,8.00
2019-05-21T15:10:55.573Z,13.77
2019-05-21T15:13:25.694Z,12.03
2019-05-21T15:15:55.816Z,15.33
2019-05-21T15:18:25.942Z,14.93
2019-05-21T15:20:57.816Z,13.97
2019-05-21T15:23:34.678Z,9.70
2019-05-21T15:26:05.149Z,11.83
2019-05-21T15:28:42.119Z,18.63
2019-05-21T15:31:15.274Z,9.00
2019-05-21T15:33:45.390Z,9.43
2019-05-21T15:36:15.501Z,9.20
2019-05-21T15:38:50.955Z,9.03
2019-05-21T15:41:18.385Z,17.03
2019-05-21T15:43:48.506Z,9.53
2019-05-21T15:46:18.605Z,10.63
2019-05-21T15:48:48.795Z,11.67
2019-05-21T15:51:18.642Z,12.53
2019-05-21T15:53:49.606Z,12.83
2019-05-21T15:56:19.705Z,6.10
2019-05-21T15:58:55.875Z,9.33
2019-05-21T16:01:31.728Z,7.60
2019-05-21T16:04:01.831Z,7.43
2019-05-21T16:06:35.951Z,9.80
2019-05-21T16:09:08.647Z,10.07
2019-05-21T16:11:46.439Z,10.43
2019-05-21T16:14:16.533Z,10.77
2019-05-21T16:16:46.631Z,9.00
2019-05-21T16:19:16.740Z,10.87
2019-05-21T16:21:46.861Z,12.60
2019-05-21T16:24:23.841Z,14.03
2019-05-21T16:27:06.086Z,10.93
2019-05-21T16:29:35.949Z,10.03
2019-05-21T16:32:05.930Z,9.00
2019-05-21T16:34:36.097Z,11.70
2019-05-21T16:37:11.809Z,13.10
2019-05-21T16:39:41.641Z,10.17
2019-05-21T16:42:11.437Z,12.57
2019-05-21T16:44:41.466Z,11.00
2019-05-21T16:47:16.320Z,12.93
2019-05-21T16:49:46.025Z,12.03
2019-05-21T16:52:15.991Z,9.63
2019-05-21T16:54:45.851Z,11.37
2019-05-21T16:57:16.657Z,11.20
2019-05-21T16:59:46.457Z,12.93
2019-05-21T17:02:18.433Z,15.20
2019-05-21T17:04:48.245Z,13.50
2019-05-21T17:07:18.227Z,17.10
2019-05-21T17:09:48.367Z,19.03
2019-05-21T17:12:19.245Z,19.00
2019-05-21T17:14:50.031Z,16.33
2019-05-21T17:17:20.869Z,22.20
2019-05-21T17:19:56.377Z,18.40
2019-05-21T17:22:31.907Z,22.47
2019-05-21T17:25:02.091Z,21.87
2019-05-21T17:27:31.977Z,23.53
2019-05-21T17:30:03.710Z,22.83
2019-05-21T17:32:33.549Z,23.17
2019-05-21T17:35:04.197Z,27.13
2019-05-21T17:37:38.631Z,28.10
2019-05-21T17:40:11.507Z,32.17
2019-05-21T17:42:41.465Z,30.47
2019-05-21T17:45:13.515Z,29.33
2019-05-21T17:47:44.993Z,35.73
2019-05-21T17:50:16.935Z,28.70
2019-05-21T17:52:48.243Z,27.70
2019-05-21T17:55:18.285Z,32.17
2019-05-21T17:57:51.864Z,34.00
2019-05-21T18:00:23.341Z,43.00
2019-05-21T18:02:54.097Z,34.47
2019-05-21T18:05:31.133Z,37.40
2019-05-21T18:08:03.849Z,34.80
2019-05-21T18:10:39.633Z,37.83
2019-05-21T18:13:09.889Z,34.07
2019-05-21T18:15:41.094Z,43.13
2019-05-21T18:18:12.949Z,40.90
2019-05-21T18:20:48.917Z,44.13
2019-05-21T18:23:18.926Z,36.93
2019-05-21T18:25:49.797Z,32.10
2019-05-21T18:28:21.822Z,35.83
2019-05-21T18:30:55.126Z,34.97
2019-05-21T18:33:25.277Z,41.13
2019-05-21T18:35:56.320Z,29.70
2019-05-21T18:38:27.744Z,40.30
2019-05-21T18:40:58.842Z,36.97
2019-05-21T18:43:29.922Z,38.67
2019-05-21T18:45:59.905Z,31.90
2019-05-21T18:48:32.085Z,31.07
2019-05-21T18:51:02.196Z,31.37
2019-05-21T18:53:32.044Z,43.33
2019-05-21T18:56:01.742Z,32.17
2019-05-21T18:58:33.009Z,38.77
2019-05-21T19:01:02.969Z,43.97
2019-05-21T19:03:37.633Z,33.97
2019-05-21T19:06:09.573Z,34.60
2019-05-21T19:08:46.325Z,32.83
2019-05-21T19:11:23.789Z,27.40
2019-05-21T19:13:54.569Z,32.90
2019-05-21T19:16:29.359Z,29.80
2019-05-21T19:18:57.521Z,29.93
2019-05-21T19:21:27.797Z,30.90
2019-05-21T19:23:57.802Z,28.50
2019-05-21T19:26:27.529Z,38.13
2019-05-21T19:28:57.265Z,34.97
2019-05-21T19:31:29.213Z,32.40
2019-05-21T19:34:00.245Z,28.23
2019-05-21T19:36:31.349Z,31.33
2019-05-21T19:39:02.190Z,27.93
2019-05-21T19:41:31.986Z,28.50
2019-05-21T19:44:02.930Z,26.43
2019-05-21T19:46:33.106Z,30.43
2019-05-21T19:49:03.958Z,35.40
2019-05-21T19:51:41.870Z,28.53
2019-05-21T19:54:11.857Z,30.30
2019-05-21T19:56:42.546Z,25.97
2019-05-21T19:59:12.540Z,24.03
2019-05-21T20:01:42.649Z,26.80
2019-05-21T20:04:12.674Z,28.60
2019-05-21T20:06:43.374Z,21.90
2019-05-21T20:09:14.921Z,32.57
2019-05-21T20:11:46.079Z,26.17
2019-05-21T20:14:15.969Z,32.73
2019-05-21T20:16:49.245Z,29.63
2019-05-21T20:19:22.501Z,22.10
2019-05-21T20:21:53.079Z,27.00
2019-05-21T20:24:29.614Z,23.10
2019-05-21T20:27:00.054Z,25.53
2019-05-21T20:29:29.859Z,23.47
2019-05-21T20:32:02.087Z,24.50
2019-05-21T20:34:31.940Z,26.97
2019-05-21T20:37:03.334Z,26.73
2019-05-21T20:39:35.015Z,31.83
2019-05-21T20:42:10.070Z,32.37
2019-05-21T20:44:51.349Z,23.80
2019-05-21T20:47:21.506Z,27.50
2019-05-21T20:49:52.694Z,25.93
2019-05-21T20:52:23.014Z,34.80
2019-05-21T20:54:57.138Z,26.10
2019-05-21T20:57:28.351Z,28.13
2019-05-21T20:59:59.058Z,37.90
2019-05-21T21:02:31.903Z,28.73
2019-05-21T21:05:02.256Z,30.97
2019-05-21T21:07:33.613Z,30.47
2019-05-21T21:10:04.498Z,26.43
2019-05-21T21:12:38.515Z,24.20
2019-05-21T21:15:18.605Z,20.97
2019-05-21T21:17:50.637Z,24.63
2019-05-21T21:20:22.742Z,29.27
2019-05-21T21:23:03.627Z,19.73
2019-05-21T21:25:34.218Z,24.87
2019-05-21T21:28:04.580Z,22.30
2019-05-21T21:30:38.982Z,19.00
2019-05-21T21:33:10.790Z,25.10
2019-05-21T21:38:45.738Z,21.90
2019-05-21T21:41:22.710Z,19.30
2019-05-21T21:43:59.054Z,19.43
2019-05-21T21:46:31.896Z,18.83
2019-05-21T21:49:10.457Z,20.10
2019-05-21T21:51:42.663Z,18.90
2019-05-21T21:54:13.086Z,15.57
2019-05-21T21:56:45.218Z,22.63
2019-05-21T21:59:17.306Z,17.77
2019-05-21T22:02:01.433Z,19.40
2019-05-21T22:04:38.818Z,20.53
2019-05-21T22:07:29.170Z,17.27
2019-05-21T22:10:12.850Z,15.40
